Time;durP1;ratioP1;P1;durP2;ratioP2;P2;SDS_P1;SDS_P2;PMS_P1;PMS_P2;Temp;Humidity;BMP_temperature;BMP_pressure;BME280_temperature;BME280_humidity;BME280_pressure;Samples;Min_cycle;Max_cycle;Signal;HPM_P1;HPM_P2
2021/05/14 00:01:24;;;;;;;2.13;0.47;;;22.20;48.80;;;;;;5032354;28;20477;-38
2021/05/14 00:03:49;;;;;;;0.60;0.40;;;22.20;48.80;;;;;;5029722;28;20120;-35
2021/05/14 00:06:15;;;;;;;1.35;0.50;;;22.20;48.80;;;;;;5030683;28;20426;-36
2021/05/14 00:08:41;;;;;;;0.90;0.40;;;22.20;48.70;;;;;;5030901;28;20402;-49
2021/05/14 00:11:07;;;;;;;1.55;0.50;;;22.20;48.70;;;;;;5027976;28;20030;-36
2021/05/14 00:13:33;;;;;;;1.08;0.50;;;22.10;48.60;;;;;;5030354;28;20533;-35
2021/05/14 00:15:58;;;;;;;2.05;0.50;;;22.10;48.60;;;;;;5031554;28;20025;-35
2021/05/14 00:18:24;;;;;;;1.00;0.60;;;22.10;48.60;;;;;;5031810;28;20455;-35
2021/05/14 00:20:50;;;;;;;1.02;0.55;;;22.10;48.70;;;;;;5029651;28;20034;-35
2021/05/14 00:23:16;;;;;;;0.32;0.32;;;22.10;48.70;;;;;;5032126;28;20100;-35
2021/05/14 00:25:43;;;;;;;4.70;0.77;;;22.10;48.60;;;;;;5033804;28;20060;-48
2021/05/14 00:28:08;;;;;;;1.88;0.55;;;22.10;48.70;;;;;;5031782;28;20044;-35
2021/05/14 00:30:34;;;;;;;1.95;0.65;;;22.10;48.60;;;;;;5031498;28;20029;-35
2021/05/14 00:33:01;;;;;;;1.02;0.55;;;22.10;48.80;;;;;;5030195;28;20055;-35
2021/05/14 00:35:27;;;;;;;1.83;0.50;;;22.10;48.70;;;;;;5031017;28;20429;-36
2021/05/14 00:37:52;;;;;;;1.10;0.50;;;22.10;48.60;;;;;;5029403;28;20037;-35
2021/05/14 00:40:18;;;;;;;1.63;0.65;;;22.10;48.60;;;;;;5031149;28;20383;-36
2021/05/14 00:42:44;;;;;;;2.17;0.47;;;22.10;49.20;;;;;;5030844;28;20029;-37
2021/05/14 00:45:11;;;;;;;0.73;0.40;;;22.10;48.50;;;;;;5031151;28;20025;-35
2021/05/14 00:47:36;;;;;;;0.73;0.35;;;22.10;48.60;;;;;;5030032;28;20033;-35
2021/05/14 00:50:04;;;;;;;1.13;0.52;;;22.10;48.50;;;;;;5029174;28;20761;-36
2021/05/14 00:52:30;;;;;;;2.15;0.65;;;22.10;48.60;;;;;;5030075;28;20052;-35
2021/05/14 00:54:56;;;;;;;0.60;0.43;;;22.10;48.50;;;;;;5034705;28;20029;-35
2021/05/14 00:57:24;;;;;;;0.77;0.40;;;22.10;48.90;;;;;;5029924;28;20033;-35
2021/05/14 00:59:50;;;;;;;2.58;0.63;;;22.10;48.60;;;;;;5030120;28;20111;-36
2021/05/14 01:02:17;;;;;;;1.85;0.68;;;22.10;48.60;;;;;;5030760;28;20045;-36
2021/05/14 01:04:43;;;;;;;0.73;0.30;;;22.10;48.70;;;;;;5024281;28;20120;-48
2021/05/14 01:07:10;;;;;;;1.17;0.57;;;22.10;48.60;;;;;;5057230;28;20036;-35
2021/05/14 01:09:39;;;;;;;1.88;0.50;;;22.10;48.70;;;;;;5029987;28;20037;-36
2021/05/14 01:12:07;;;;;;;2.00;0.43;;;22.10;48.70;;;;;;5030747;28;20029;-36
2021/05/14 01:14:32;;;;;;;2.22;0.77;;;22.10;48.60;;;;;;5029992;28;20036;-36
2021/05/14 01:16:59;;;;;;;1.08;0.50;;;22.10;48.70;;;;;;5030147;28;20030;-36
2021/05/14 01:19:25;;;;;;;2.53;0.50;;;22.10;48.60;;;;;;5030897;28;20056;-36
2021/05/14 01:21:51;;;;;;;1.27;0.50;;;22.10;48.60;;;;;;5030861;28;20030;-35
2021/05/14 01:24:17;;;;;;;0.90;0.55;;;22.10;48.60;;;;;;5029804;28;20033;-36
2021/05/14 01:26:42;;;;;;;0.90;0.60;;;22.10;48.70;;;;;;5029644;28;20466;-48
2021/05/14 01:29:10;;;;;;;0.82;0.50;;;22.10;48.60;;;;;;5029517;28;20033;-36
2021/05/14 01:31:36;;;;;;;0.95;0.47;;;22.10;48.60;;;;;;5032909;28;20026;-36
2021/05/14 01:34:04;;;;;;;2.28;0.40;;;22.10;48.60;;;;;;5033305;28;20719;-35
2021/05/14 01:36:30;;;;;;;1.17;0.47;;;22.10;48.60;;;;;;5032981;28;20474;-35
2021/05/14 01:38:55;;;;;;;0.82;0.50;;;22.10;48.50;;;;;;5033855;28;20044;-36
2021/05/14 01:41:21;;;;;;;0.73;0.43;;;22.10;48.60;;;;;;5033544;28;20037;-36
2021/05/14 01:43:47;;;;;;;0.93;0.50;;;22.10;48.60;;;;;;5034090;28;20104;-36
2021/05/14 01:46:12;;;;;;;2.20;0.40;;;22.10;48.50;;;;;;5034700;28;20084;-35
2021/05/14 01:48:38;;;;;;;1.23;0.50;;;22.10;48.60;;;;;;5034352;28;20485;-36
2021/05/14 01:51:17;;;;;;;0.63;0.40;;;22.10;48.60;;;;;;5033860;28;20040;-35
2021/05/14 01:53:44;;;;;;;0.80;0.40;;;22.10;48.50;;;;;;5034245;28;20112;-49
2021/05/14 01:56:10;;;;;;;0.88;0.60;;;22.10;48.50;;;;;;5032568;28;20029;-36
2021/05/14 01:58:36;;;;;;;1.80;0.40;;;22.10;48.50;;;;;;5028164;28;20042;-38
2021/05/14 02:01:03;;;;;;;1.33;0.50;;;22.10;48.40;;;;;;5030994;28;20044;-38
2021/05/14 02:03:30;;;;;;;0.70;0.50;;;22.10;48.50;;;;;;5027685;28;20018;-36
2021/05/14 02:05:56;;;;;;;1.48;0.57;;;22.10;48.50;;;;;;5031607;28;20025;-35
2021/05/14 02:08:22;;;;;;;1.17;0.50;;;22.10;48.50;;;;;;5032781;28;20477;-43
2021/05/14 02:10:48;;;;;;;0.52;0.50;;;22.10;48.50;;;;;;5032345;28;20036;-48
2021/05/14 02:13:13;;;;;;;0.50;0.47;;;22.10;48.40;;;;;;5030874;28;20386;-36
2021/05/14 02:15:39;;;;;;;0.95;0.35;;;22.10;48.50;;;;;;5032491;28;20025;-36
2021/05/14 02:18:06;;;;;;;1.58;0.50;;;22.10;48.40;;;;;;5032230;28;20811;-36
2021/05/14 02:20:32;;;;;;;0.65;0.40;;;22.10;48.40;;;;;;5030661;28;20058;-41
2021/05/14 02:22:59;;;;;;;0.80;0.43;;;22.10;48.40;;;;;;5030787;28;20025;-36
2021/05/14 02:25:24;;;;;;;0.55;0.40;;;22.10;48.40;;;;;;5031604;28;20028;-36
2021/05/14 02:27:50;;;;;;;1.23;0.55;;;22.10;48.40;;;;;;5031521;28;20041;-36
2021/05/14 02:30:16;;;;;;;0.68;0.35;;;22.10;48.40;;;;;;5026899;28;20479;-36
2021/05/14 02:32:42;;;;;;;1.38;0.43;;;22.10;48.40;;;;;;5031883;28;20549;-46
2021/05/14 02:35:09;;;;;;;1.42;0.50;;;22.10;49.10;;;;;;5032072;28;20018;-36
2021/05/14 02:37:35;;;;;;;0.40;0.40;;;22.10;48.30;;;;;;5032387;28;20108;-36
2021/05/14 02:40:00;;;;;;;1.45;0.47;;;22.10;48.40;;;;;;5032776;28;20101;-36
2021/05/14 02:42:26;;;;;;;0.52;0.40;;;22.10;48.30;;;;;;5033644;28;20022;-35
2021/05/14 02:44:52;;;;;;;1.35;0.68;;;22.10;48.30;;;;;;5032690;28;20032;-36
2021/05/14 02:47:17;;;;;;;0.55;0.40;;;22.10;48.30;;;;;;5032308;28;20033;-35
2021/05/14 02:49:43;;;;;;;0.60;0.40;;;22.10;48.30;;;;;;5032999;28;20378;-49
2021/05/14 02:52:09;;;;;;;1.20;0.50;;;22.10;48.30;;;;;;5030302;28;20033;-44
2021/05/14 02:54:35;;;;;;;1.30;0.40;;;22.10;48.30;;;;;;5036503;28;20173;-35
2021/05/14 02:57:02;;;;;;;2.47;0.88;;;22.10;48.20;;;;;;5030851;28;20103;-36
2021/05/14 02:59:28;;;;;;;0.32;0.30;;;22.10;48.30;;;;;;5031688;28;20049;-35
2021/05/14 03:01:54;;;;;;;0.73;0.43;;;22.10;48.30;;;;;;5031017;28;20035;-36
2021/05/14 03:04:19;;;;;;;0.60;0.30;;;22.10;48.30;;;;;;5032056;28;20048;-35
2021/05/14 03:06:46;;;;;;;0.85;0.63;;;22.10;48.30;;;;;;5030868;28;20030;-48
2021/05/14 03:09:12;;;;;;;0.52;0.40;;;22.00;48.30;;;;;;5033249;28;20095;-35
2021/05/14 03:11:38;;;;;;;0.77;0.40;;;22.00;48.30;;;;;;5033109;28;20450;-39
2021/05/14 03:14:05;;;;;;;0.55;0.40;;;22.00;48.30;;;;;;5032230;28;20040;-35
2021/05/14 03:16:31;;;;;;;0.70;0.40;;;22.00;48.30;;;;;;5031229;28;20055;-35
2021/05/14 03:18:57;;;;;;;1.08;0.50;;;22.00;48.40;;;;;;5032247;28;20064;-35
2021/05/14 03:21:22;;;;;;;0.35;0.30;;;21.90;48.30;;;;;;5031351;28;20024;-35
2021/05/14 03:23:48;;;;;;;0.68;0.45;;;21.90;48.30;;;;;;5030392;28;20486;-39
2021/05/14 03:26:14;;;;;;;0.80;0.50;;;21.90;48.40;;;;;;5032814;28;20056;-35
2021/05/14 03:28:39;;;;;;;0.55;0.40;;;21.90;48.40;;;;;;5031270;28;20440;-35
2021/05/14 03:31:05;;;;;;;1.85;0.65;;;21.90;48.50;;;;;;5031497;28;20034;-35
2021/05/14 03:33:31;;;;;;;2.05;0.45;;;21.90;48.50;;;;;;5032934;28;20041;-35
2021/05/14 03:35:57;;;;;;;1.20;0.43;;;21.90;48.50;;;;;;5031432;28;20155;-35
2021/05/14 03:38:28;;;;;;;0.88;0.40;;;21.80;48.50;;;;;;5032687;28;20711;-35
2021/05/14 03:40:55;;;;;;;3.08;0.60;;;21.80;48.60;;;;;;5031897;28;20029;-35
2021/05/14 03:43:21;;;;;;;0.95;0.50;;;21.80;48.50;;;;;;5032388;28;20067;-35
2021/05/14 03:45:47;;;;;;;1.35;0.50;;;21.80;48.50;;;;;;5031775;28;20029;-47
2021/05/14 03:48:20;;;;;;;0.50;0.30;;;21.80;48.40;;;;;;5028789;28;20049;-35
2021/05/14 03:50:47;;;;;;;0.90;0.52;;;21.80;48.50;;;;;;5032043;28;20467;-48
2021/05/14 03:53:13;;;;;;;1.58;0.40;;;21.80;48.50;;;;;;5030059;28;20075;-35
2021/05/14 03:55:39;;;;;;;0.52;0.47;;;21.80;48.50;;;;;;5030965;28;20025;-35
2021/05/14 03:58:05;;;;;;;0.90;0.55;;;21.80;48.50;;;;;;5030821;28;20030;-35
2021/05/14 04:00:30;;;;;;;6.50;1.58;;;21.80;48.40;;;;;;5031643;28;20120;-35
2021/05/14 04:02:56;;;;;;;1.30;0.47;;;21.80;48.40;;;;;;5030225;28;20029;-35
2021/05/14 04:05:22;;;;;;;1.45;0.60;;;21.80;48.40;;;;;;5031542;28;20095;-35
2021/05/14 04:07:48;;;;;;;0.77;0.45;;;21.80;48.40;;;;;;5031206;28;20025;-47
2021/05/14 04:10:20;;;;;;;2.47;0.52;;;21.80;48.30;;;;;;5031884;28;20026;-36
2021/05/14 04:15:31;;;;;;;1.85;0.47;;;21.80;48.40;;;;;;5031507;28;20033;-35
2021/05/14 04:17:57;;;;;;;1.20;0.50;;;21.80;48.30;;;;;;5030717;28;20406;-35
2021/05/14 04:20:23;;;;;;;1.52;0.47;;;21.80;48.40;;;;;;5030003;28;20036;-36
2021/05/14 04:22:50;;;;;;;1.50;0.77;;;21.80;48.30;;;;;;5030340;28;20035;-46
2021/05/14 04:25:16;;;;;;;0.90;0.35;;;21.70;48.30;;;;;;5030699;28;20112;-35
2021/05/14 04:27:41;;;;;;;0.77;0.50;;;21.80;48.40;;;;;;5031236;28;20112;-35
2021/05/14 04:30:08;;;;;;;0.40;0.30;;;21.70;48.30;;;;;;5030884;28;20202;-35
2021/05/14 04:32:33;;;;;;;1.23;0.60;;;21.70;48.30;;;;;;5030545;28;20033;-35
2021/05/14 04:34:59;;;;;;;2.35;0.32;;;21.70;48.30;;;;;;5030783;28;20033;-35
2021/05/14 04:37:25;;;;;;;1.35;0.55;;;21.70;48.30;;;;;;5031142;28;20112;-35
2021/05/14 04:39:50;;;;;;;0.93;0.52;;;21.70;48.20;;;;;;5028179;28;20045;-44
2021/05/14 04:42:16;;;;;;;0.30;0.30;;;21.70;48.20;;;;;;5026028;28;20037;-35
2021/05/14 04:44:42;;;;;;;0.70;0.40;;;21.70;48.20;;;;;;5028498;28;20033;-35
2021/05/14 04:47:07;;;;;;;1.27;0.60;;;21.70;48.20;;;;;;5028207;28;20115;-35
2021/05/14 04:49:33;;;;;;;0.75;0.30;;;21.70;48.30;;;;;;5028997;28;20494;-35
2021/05/14 04:51:59;;;;;;;1.20;0.43;;;21.70;48.20;;;;;;5019436;28;20490;-35
2021/05/14 04:54:25;;;;;;;2.92;0.52;;;21.70;48.20;;;;;;5029284;28;20042;-35
2021/05/14 04:56:51;;;;;;;0.60;0.30;;;21.70;48.20;;;;;;5028882;28;20052;-48
2021/05/14 04:59:16;;;;;;;1.13;0.50;;;21.70;48.10;;;;;;5032531;28;20106;-35
2021/05/14 05:01:42;;;;;;;2.13;0.45;;;21.70;48.20;;;;;;5043993;28;20036;-35
2021/05/14 05:04:09;;;;;;;0.63;0.38;;;21.70;48.20;;;;;;5026523;28;20029;-35
2021/05/14 05:06:34;;;;;;;0.95;0.50;;;21.70;48.20;;;;;;5031994;28;20041;-35
2021/05/14 05:09:00;;;;;;;0.82;0.50;;;21.70;48.20;;;;;;5046776;28;20037;-35
2021/05/14 05:11:26;;;;;;;1.65;0.52;;;21.70;48.20;;;;;;5034691;28;20033;-35
2021/05/14 05:13:52;;;;;;;1.13;0.52;;;21.70;48.20;;;;;;5033916;28;20030;-47
2021/05/14 05:16:17;;;;;;;2.45;0.43;;;21.70;48.20;;;;;;5033747;28;20083;-35
2021/05/14 05:18:43;;;;;;;1.15;0.50;;;21.70;48.10;;;;;;5034188;28;20071;-35
2021/05/14 05:21:09;;;;;;;2.35;1.05;;;21.70;48.10;;;;;;5034186;28;20025;-38
2021/05/14 05:23:34;;;;;;;1.75;0.40;;;21.70;48.20;;;;;;5035046;28;20025;-35
2021/05/14 05:26:00;;;;;;;0.55;0.40;;;21.70;48.20;;;;;;5034432;28;20379;-35
2021/05/14 05:28:27;;;;;;;0.52;0.32;;;21.70;48.10;;;;;;5035071;28;20041;-35
2021/05/14 05:30:53;;;;;;;0.85;0.50;;;21.70;48.10;;;;;;5033626;28;20053;-36
2021/05/14 05:33:19;;;;;;;0.65;0.50;;;21.70;48.20;;;;;;5033274;28;20053;-35
2021/05/14 05:35:45;;;;;;;3.10;0.70;;;21.70;48.10;;;;;;5028381;28;20036;-35
2021/05/14 05:38:30;;;;;;;2.58;0.47;;;21.70;48.10;;;;;;5033758;28;20025;-35
2021/05/14 05:40:55;;;;;;;0.55;0.40;;;21.70;48.10;;;;;;5032557;28;20029;-35
2021/05/14 05:43:21;;;;;;;0.98;0.50;;;21.70;48.10;;;;;;5034411;28;20460;-35
2021/05/14 05:45:47;;;;;;;1.00;0.47;;;21.70;48.20;;;;;;5033549;28;20116;-36
2021/05/14 05:48:13;;;;;;;2.17;1.05;;;21.70;48.10;;;;;;5032988;28;20034;-35
2021/05/14 05:50:39;;;;;;;0.50;0.40;;;21.70;48.20;;;;;;5034252;28;20108;-35
2021/05/14 05:53:07;;;;;;;1.65;0.45;;;21.70;48.20;;;;;;5033542;28;20025;-35
2021/05/14 05:55:33;;;;;;;1.92;0.52;;;21.70;48.10;;;;;;5033366;28;20029;-35
2021/05/14 05:58:13;;;;;;;1.67;0.60;;;21.70;48.10;;;;;;5033398;28;20037;-35
2021/05/14 06:00:40;;;;;;;1.02;0.43;;;21.70;48.20;;;;;;5033607;28;20029;-36
2021/05/14 06:03:09;;;;;;;2.50;0.40;;;21.70;48.10;;;;;;5032085;28;20095;-43
2021/05/14 06:05:35;;;;;;;1.65;0.40;;;21.70;48.20;;;;;;5033272;28;20028;-47
2021/05/14 06:08:01;;;;;;;0.98;0.40;;;21.70;48.10;;;;;;5031548;28;20041;-36
2021/05/14 06:10:26;;;;;;;1.02;0.43;;;21.70;48.20;;;;;;5033212;28;20482;-36
2021/05/14 06:12:53;;;;;;;0.73;0.43;;;21.70;48.80;;;;;;5032372;28;20029;-49
2021/05/14 06:15:18;;;;;;;0.80;0.60;;;21.70;48.30;;;;;;5031120;28;20030;-37
2021/05/14 06:17:44;;;;;;;1.42;0.63;;;21.70;48.20;;;;;;5031744;28;20482;-36
2021/05/14 06:20:13;;;;;;;0.90;0.40;;;21.70;48.30;;;;;;5031972;28;20034;-36
2021/05/14 06:22:39;;;;;;;1.00;0.57;;;21.70;48.20;;;;;;5031341;28;20025;-36
2021/05/14 06:25:06;;;;;;;2.00;0.30;;;21.70;48.10;;;;;;5032196;28;20040;-36
2021/05/14 06:27:32;;;;;;;2.10;0.40;;;21.70;48.20;;;;;;5031981;28;20482;-36
2021/05/14 06:29:58;;;;;;;2.25;0.80;;;21.70;48.20;;;;;;5027308;28;20065;-36
2021/05/14 06:32:24;;;;;;;1.48;0.50;;;21.70;48.20;;;;;;5031919;28;20072;-36
2021/05/14 06:34:50;;;;;;;0.95;0.70;;;21.70;48.10;;;;;;5031135;28;20030;-36
2021/05/14 06:37:16;;;;;;;0.60;0.40;;;21.70;48.20;;;;;;5032246;28;20109;-36
2021/05/14 06:39:43;;;;;;;0.50;0.40;;;21.70;48.20;;;;;;5032614;28;20147;-36
2021/05/14 06:42:09;;;;;;;2.67;0.50;;;21.70;48.20;;;;;;5032054;28;20105;-36
2021/05/14 06:44:34;;;;;;;0.47;0.40;;;21.70;48.30;;;;;;5031724;28;20116;-36
2021/05/14 06:47:00;;;;;;;0.65;0.40;;;21.70;48.20;;;;;;5028336;28;20144;-44
2021/05/14 06:49:26;;;;;;;0.75;0.40;;;21.70;48.30;;;;;;5029895;28;20483;-36
2021/05/14 06:51:51;;;;;;;6.25;0.63;;;21.70;48.20;;;;;;5026322;28;20121;-49
2021/05/14 06:54:17;;;;;;;10.77;1.65;;;21.70;48.30;;;;;;5016099;28;20437;-36
2021/05/14 06:56:43;;;;;;;3.08;0.60;;;21.70;48.60;;;;;;5029413;28;20045;-36
2021/05/14 06:59:08;;;;;;;2.08;0.60;;;21.70;48.40;;;;;;4995197;28;644706;-36
2021/05/14 07:01:34;;;;;;;3.70;0.50;;;21.70;48.60;;;;;;5017215;28;20038;-36
2021/05/14 07:04:00;;;;;;;6.50;0.60;;;21.70;48.50;;;;;;5024004;28;20069;-36
2021/05/14 07:06:26;;;;;;;2.63;0.50;;;21.80;48.60;;;;;;5011314;28;20046;-34
2021/05/14 07:08:51;;;;;;;3.58;0.68;;;21.80;48.80;;;;;;5019998;28;20041;-50
2021/05/14 07:11:17;;;;;;;5.68;0.52;;;21.80;48.70;;;;;;5029437;28;20029;-36
2021/05/14 07:13:43;;;;;;;4.10;0.50;;;21.70;48.70;;;;;;5013923;28;20494;-36
2021/05/14 07:16:09;;;;;;;3.65;0.60;;;21.70;48.60;;;;;;5028887;28;20038;-36
2021/05/14 07:18:35;;;;;;;4.25;0.45;;;21.70;48.60;;;;;;5031117;28;20040;-36
2021/05/14 07:21:00;;;;;;;1.92;0.68;;;21.70;48.70;;;;;;5032040;28;20037;-36
2021/05/14 07:23:26;;;;;;;3.65;0.75;;;21.70;48.60;;;;;;5030116;28;20470;-36
2021/05/14 07:25:52;;;;;;;1.60;0.47;;;21.70;48.70;;;;;;5030537;28;20113;-48
2021/05/14 07:28:18;;;;;;;5.78;0.88;;;21.70;48.60;;;;;;5029781;28;20039;-35
2021/05/14 07:30:44;;;;;;;2.20;0.57;;;21.60;48.60;;;;;;5032078;28;20033;-35
2021/05/14 07:33:10;;;;;;;3.10;0.60;;;21.70;48.60;;;;;;5031497;28;20132;-35
2021/05/14 07:35:36;;;;;;;6.40;0.90;;;21.70;48.60;;;;;;5031836;28;20104;-35
2021/05/14 07:38:01;;;;;;;6.20;1.98;;;21.70;48.60;;;;;;5031516;28;20421;-35
2021/05/14 07:40:27;;;;;;;4.35;0.73;;;21.60;48.50;;;;;;5032534;28;20030;-35
2021/05/14 07:42:53;;;;;;;2.28;0.43;;;21.60;48.50;;;;;;5032610;28;20113;-47
2021/05/14 07:45:19;;;;;;;2.63;0.60;;;21.70;48.60;;;;;;5032190;28;20129;-35
2021/05/14 07:47:45;;;;;;;0.88;0.45;;;21.60;48.60;;;;;;5031403;28;20482;-35
2021/05/14 07:50:11;;;;;;;4.68;0.57;;;21.60;48.50;;;;;;5031260;28;20065;-40
2021/05/14 07:52:39;;;;;;;1.27;0.50;;;21.70;48.60;;;;;;5029388;28;20041;-35
2021/05/14 07:55:05;;;;;;;1.55;0.50;;;21.70;48.50;;;;;;5031298;28;20485;-36
2021/05/14 07:57:31;;;;;;;1.40;0.40;;;21.60;48.50;;;;;;5032100;28;20127;-35
2021/05/14 07:59:57;;;;;;;2.72;0.60;;;21.60;48.40;;;;;;5030168;28;20156;-49
2021/05/14 08:02:22;;;;;;;2.38;0.63;;;21.60;49.10;;;;;;5030440;28;20485;-35
2021/05/14 08:04:48;;;;;;;0.98;0.45;;;21.60;48.50;;;;;;5029980;28;20026;-40
2021/05/14 08:07:14;;;;;;;3.15;0.88;;;21.70;48.60;;;;;;5030814;28;20034;-35
2021/05/14 08:09:41;;;;;;;2.30;0.50;;;21.70;48.50;;;;;;5034260;28;20200;-35
2021/05/14 08:12:08;;;;;;;2.00;0.40;;;21.70;48.40;;;;;;5036367;28;20033;-36
2021/05/14 08:14:33;;;;;;;1.52;0.52;;;21.70;48.40;;;;;;5030954;28;20377;-35
2021/05/14 08:16:59;;;;;;;1.77;0.70;;;21.70;48.40;;;;;;5049105;28;20032;-36
2021/05/14 08:19:25;;;;;;;1.27;0.50;;;21.70;48.40;;;;;;5031626;28;20021;-36
2021/05/14 08:21:52;;;;;;;1.67;1.08;;;21.70;48.40;;;;;;5043184;28;20099;-36
2021/05/14 08:24:18;;;;;;;1.90;0.60;;;21.70;48.60;;;;;;5022857;28;20030;-36
2021/05/14 08:26:43;;;;;;;2.40;0.50;;;21.70;48.60;;;;;;5029427;28;20083;-39
2021/05/14 08:29:11;;;;;;;5.28;0.80;;;21.80;48.70;;;;;;5030469;28;20041;-35
2021/05/14 08:31:41;;;;;;;2.65;0.60;;;21.80;48.70;;;;;;5029632;28;20387;-35
2021/05/14 08:34:11;;;;;;;1.88;0.40;;;21.80;48.60;;;;;;5029748;28;20463;-36
2021/05/14 08:36:37;;;;;;;4.28;0.70;;;21.80;48.50;;;;;;5023480;28;20378;-36
2021/05/14 08:39:03;;;;;;;1.75;0.60;;;21.80;48.70;;;;;;5032749;28;20029;-36
2021/05/14 08:41:29;;;;;;;4.43;0.90;;;21.80;48.70;;;;;;5033802;28;20033;-36
2021/05/14 08:43:55;;;;;;;4.93;0.65;;;21.80;48.70;;;;;;5032329;28;20068;-50
2021/05/14 08:46:25;;;;;;;2.35;0.50;;;21.80;48.70;;;;;;5032119;28;20484;-38
2021/05/14 08:48:53;;;;;;;2.22;0.50;;;21.80;48.60;;;;;;5038170;28;20033;-36
2021/05/14 08:51:25;;;;;;;3.25;0.68;;;21.90;48.70;;;;;;5030417;28;20116;-36
2021/05/14 08:53:51;;;;;;;4.45;0.50;;;21.90;48.70;;;;;;5029696;28;20057;-39
2021/05/14 08:56:17;;;;;;;6.82;1.15;;;21.90;48.80;;;;;;5028785;28;20065;-39
2021/05/14 08:58:43;;;;;;;8.18;0.82;;;21.90;49.10;;;;;;5030890;28;20052;-38
2021/05/14 09:01:08;;;;;;;5.03;1.08;;;22.00;49.10;;;;;;5033548;28;20029;-38
2021/05/14 09:03:59;;;;;;;3.25;0.52;;;22.10;49.20;;;;;;5030841;28;20029;-38
2021/05/14 09:06:36;;;;;;;4.28;0.75;;;22.10;49.20;;;;;;5031145;28;20033;-38
2021/05/14 09:09:10;;;;;;;3.53;0.45;;;22.20;49.20;;;;;;5026326;28;20052;-38
2021/05/14 09:11:39;;;;;;;2.83;0.52;;;22.20;49.20;;;;;;5029203;28;20021;-39
2021/05/14 09:14:06;;;;;;;1.95;0.52;;;22.20;49.30;;;;;;5025694;28;20025;-40
2021/05/14 09:16:40;;;;;;;7.97;0.60;;;22.20;49.80;;;;;;5030966;28;20025;-43
2021/05/14 09:19:06;;;;;;;12.88;1.15;;;22.20;49.90;;;;;;5023497;28;20026;-38
2021/05/14 09:21:32;;;;;;;6.25;0.90;;;22.20;49.90;;;;;;5045516;28;20026;-38
2021/05/14 09:23:59;;;;;;;7.40;0.60;;;22.20;49.80;;;;;;5029140;28;20052;-46
2021/05/14 09:26:30;;;;;;;5.55;1.38;;;22.30;50.00;;;;;;5029101;28;20098;-39
2021/05/14 09:28:57;;;;;;;7.15;0.60;;;22.30;50.00;;;;;;5030255;28;20026;-38
2021/05/14 09:31:41;;;;;;;4.40;0.45;;;22.30;49.80;;;;;;5030100;28;20121;-38
2021/05/14 09:34:07;;;;;;;7.80;0.88;;;22.30;49.70;;;;;;5030227;28;20128;-39
2021/05/14 09:36:34;;;;;;;4.90;0.70;;;22.30;49.70;;;;;;5030338;28;20049;-39
2021/05/14 09:39:07;;;;;;;3.47;1.05;;;22.30;49.50;;;;;;5030547;28;20033;-45
2021/05/14 09:41:46;;;;;;;3.90;0.63;;;22.30;49.50;;;;;;5034322;28;20025;-41
2021/05/14 09:44:20;;;;;;;2.97;0.45;;;22.30;49.30;;;;;;5027529;28;20025;-38
2021/05/14 09:46:54;;;;;;;3.95;0.60;;;22.40;49.30;;;;;;5029453;28;20068;-39
2021/05/14 09:49:24;;;;;;;3.42;0.60;;;22.30;49.40;;;;;;5045862;28;20215;-38
2021/05/14 09:51:56;;;;;;;5.15;0.70;;;22.40;49.60;;;;;;5033855;28;20060;-38
2021/05/14 09:54:27;;;;;;;6.40;1.02;;;22.40;49.30;;;;;;5034155;28;20033;-39
2021/05/14 09:59:47;;;;;;;4.03;0.43;;;22.40;49.30;;;;;;5034543;28;20550;-38
2021/05/14 10:02:29;;;;;;;4.50;0.85;;;22.40;49.40;;;;;;5031676;28;20112;-38
2021/05/14 10:04:56;;;;;;;4.65;0.60;;;22.40;49.40;;;;;;5034229;28;20025;-38
2021/05/14 10:07:26;;;;;;;1.27;0.68;;;22.40;49.20;;;;;;5030230;28;20064;-38
2021/05/14 10:09:58;;;;;;;1.40;0.50;;;22.40;49.20;;;;;;5033292;28;20041;-40
2021/05/14 10:12:25;;;;;;;5.78;1.00;;;22.40;49.20;;;;;;5025527;28;20033;-38
2021/05/14 10:14:56;;;;;;;2.05;0.50;;;22.40;49.10;;;;;;5033999;28;20356;-38
2021/05/14 10:17:22;;;;;;;3.35;0.70;;;22.40;49.10;;;;;;5033141;28;20402;-39
2021/05/14 10:19:50;;;;;;;4.40;0.70;;;22.50;49.00;;;;;;5033859;28;20025;-46
2021/05/14 10:22:17;;;;;;;1.08;0.40;;;22.40;47.70;;;;;;5030890;28;20088;-45
2021/05/14 10:24:57;;;;;;;2.63;0.60;;;22.40;48.50;;;;;;5032487;28;20029;-47
2021/05/14 10:27:24;;;;;;;4.47;1.63;;;22.40;48.80;;;;;;5032745;28;20068;-47
2021/05/14 10:29:52;;;;;;;5.28;0.80;;;22.50;49.00;;;;;;5033545;28;20025;-46
2021/05/14 10:32:44;;;;;;;4.25;1.02;;;22.50;49.20;;;;;;5032465;28;20117;-47
2021/05/14 10:35:31;;;;;;;5.68;0.60;;;22.40;49.00;;;;;;5031723;28;20121;-45
2021/05/14 10:37:57;;;;;;;4.10;0.57;;;22.40;48.60;;;;;;5038486;28;20037;-46
2021/05/14 10:40:29;;;;;;;8.55;0.80;;;22.40;48.70;;;;;;5031581;28;20342;-45
2021/05/14 10:43:03;;;;;;;5.55;0.93;;;22.50;48.80;;;;;;5033143;28;20479;-46
2021/05/14 10:45:44;;;;;;;5.35;0.88;;;22.50;48.80;;;;;;5033285;28;20061;-45
2021/05/14 10:50:58;;;;;;;2.47;0.68;;;22.50;49.00;;;;;;5033536;28;20037;-47
2021/05/14 10:53:30;;;;;;;4.00;0.70;;;22.60;48.80;;;;;;5026919;28;20100;-46
2021/05/14 10:56:16;;;;;;;6.15;1.30;;;22.60;49.00;;;;;;5031104;28;20029;-46
2021/05/14 10:59:00;;;;;;;3.53;1.08;;;22.60;49.30;;;;;;5028703;28;20449;-46
2021/05/14 11:01:33;;;;;;;7.82;1.40;;;22.60;49.70;;;;;;5029588;28;20033;-46
2021/05/14 11:04:01;;;;;;;6.43;1.45;;;22.60;49.50;;;;;;5030082;28;20060;-46
2021/05/14 11:06:57;;;;;;;7.85;1.67;;;22.60;49.60;;;;;;5032573;28;20083;-35
2021/05/14 11:09:24;;;;;;;4.10;1.10;;;22.70;49.70;;;;;;5031719;28;20387;-36
2021/05/14 11:12:05;;;;;;;8.00;2.38;;;22.80;50.10;;;;;;5032943;28;20040;-35
2021/05/14 11:14:41;;;;;;;4.22;1.13;;;22.80;49.90;;;;;;5031017;28;20033;-36
2021/05/14 11:17:17;;;;;;;4.88;1.02;;;22.80;49.60;;;;;;5031498;28;20037;-35
2021/05/14 11:19:47;;;;;;;4.03;0.95;;;22.70;49.80;;;;;;5031562;28;20038;-36
2021/05/14 11:22:15;;;;;;;5.57;1.20;;;22.70;49.80;;;;;;5031421;28;20119;-36
2021/05/14 11:24:52;;;;;;;4.00;1.05;;;22.70;49.70;;;;;;5031083;28;20025;-36
2021/05/14 11:27:21;;;;;;;4.55;1.13;;;22.70;50.00;;;;;;5031655;28;20040;-35
2021/05/14 11:29:51;;;;;;;3.65;0.90;;;22.80;50.00;;;;;;5032749;28;20040;-36
2021/05/14 11:32:21;;;;;;;6.40;0.88;;;22.80;49.80;;;;;;5032338;28;20025;-36
2021/05/14 11:34:50;;;;;;;3.53;0.70;;;22.80;49.80;;;;;;5033103;28;20032;-36
2021/05/14 11:37:21;;;;;;;4.38;0.80;;;22.90;49.80;;;;;;5031114;28;20061;-36
2021/05/14 11:39:47;;;;;;;8.48;0.95;;;22.80;50.00;;;;;;5034841;28;20037;-36
2021/05/14 11:42:21;;;;;;;4.07;0.60;;;22.80;50.10;;;;;;5031434;28;20026;-36
2021/05/14 11:45:24;;;;;;;3.70;0.68;;;22.70;50.10;;;;;;5032073;28;20026;-36
2021/05/14 11:47:58;;;;;;;2.67;0.93;;;22.80;49.90;;;;;;5025309;28;20128;-35
2021/05/14 11:50:36;;;;;;;7.88;1.05;;;22.80;51.00;;;;;;5030864;28;20021;-35
2021/05/14 11:53:05;;;;;;;8.52;1.13;;;22.70;51.20;;;;;;5031712;28;20033;-49
2021/05/14 11:55:32;;;;;;;3.88;0.70;;;22.70;51.20;;;;;;5029887;28;20032;-36
2021/05/14 11:57:59;;;;;;;6.57;1.13;;;22.70;54.20;;;;;;5031354;28;20030;-37
2021/05/14 12:00:34;;;;;;;7.60;1.15;;;22.60;53.60;;;;;;5031433;28;20036;-38
2021/05/14 12:03:06;;;;;;;5.78;1.10;;;22.60;53.40;;;;;;5026950;28;20033;-46
2021/05/14 12:05:32;;;;;;;4.78;0.68;;;22.70;53.00;;;;;;5023969;28;20040;-36
2021/05/14 12:08:27;;;;;;;9.15;1.55;;;22.70;53.10;;;;;;5031554;28;20091;-35
2021/05/14 12:10:57;;;;;;;4.03;0.75;;;22.70;53.10;;;;;;5031809;28;20042;-35
2021/05/14 12:13:25;;;;;;;6.95;0.73;;;22.80;53.40;;;;;;5011575;28;20057;-36
2021/05/14 12:16:10;;;;;;;7.25;0.88;;;22.70;52.40;;;;;;5024940;28;20063;-36
2021/05/14 12:18:38;;;;;;;3.90;0.93;;;22.60;51.30;;;;;;5031355;28;20041;-36
2021/05/14 12:21:11;;;;;;;4.80;0.70;;;22.40;50.50;;;;;;5031399;28;20057;-47
2021/05/14 12:23:36;;;;;;;3.60;0.50;;;22.30;50.70;;;;;;5031211;28;20064;-36
2021/05/14 12:26:06;;;;;;;4.45;0.47;;;22.20;49.70;;;;;;5031566;28;20057;-48
2021/05/14 12:28:42;;;;;;;3.50;0.55;;;22.10;48.60;;;;;;5031568;28;20040;-35
2021/05/14 12:31:15;;;;;;;4.53;0.60;;;22.10;47.80;;;;;;5029637;28;20033;-36
2021/05/14 12:34:02;;;;;;;2.72;0.50;;;22.10;47.20;;;;;;5056135;28;20076;-36
2021/05/14 12:36:32;;;;;;;1.42;0.55;;;22.00;47.50;;;;;;5030993;28;20064;-37
2021/05/14 12:39:11;;;;;;;1.50;0.43;;;22.00;47.10;;;;;;5033396;28;20104;-35
2021/05/14 12:42:01;;;;;;;0.73;0.40;;;22.00;47.90;;;;;;5031466;28;20113;-37
2021/05/14 12:44:37;;;;;;;1.30;0.32;;;21.90;47.80;;;;;;5025193;28;20049;-36
2021/05/14 12:47:10;;;;;;;1.02;0.50;;;22.00;46.50;;;;;;5031067;28;20021;-48
2021/05/14 12:49:50;;;;;;;1.20;0.55;;;21.90;45.10;;;;;;5020064;28;20037;-36
2021/05/14 12:52:36;;;;;;;0.75;0.40;;;22.00;44.40;;;;;;5030424;28;20029;-36
2021/05/14 12:55:16;;;;;;;4.70;0.50;;;22.00;44.80;;;;;;5029234;28;20052;-45
2021/05/14 12:57:49;;;;;;;1.95;0.40;;;21.90;43.90;;;;;;5030025;28;20112;-37
2021/05/14 13:00:20;;;;;;;1.63;0.50;;;21.90;43.60;;;;;;5024403;28;20045;-36